Map

Track Data

SID SEASON NUMBER BASIN SUBBASIN NAME ISO_TIME NATURE LAT LON WMO_WIND WMO_PRES WMO_AGENCY TRACK_TYPE DIST2LAND LANDFALL IFLAG USA_AGENCY USA_ATCF_ID USA_LAT USA_LON USA_RECORD USA_STATUS USA_WIND USA_PRES USA_SSHS USA_R34_NE USA_R34_SE USA_R34_SW USA_R34_NW USA_R50_NE USA_R50_SE USA_R50_SW USA_R50_NW USA_R64_NE USA_R64_SE USA_R64_SW USA_R64_NW USA_POCI USA_ROCI USA_RMW USA_EYE TOKYO_LAT TOKYO_LON TOKYO_GRADE TOKYO_WIND TOKYO_PRES TOKYO_R50_DIR TOKYO_R50_LONG TOKYO_R50_SHORT TOKYO_R30_DIR TOKYO_R30_LONG TOKYO_R30_SHORT TOKYO_LAND CMA_LAT CMA_LON CMA_CAT CMA_WIND CMA_PRES HKO_LAT HKO_LON HKO_CAT HKO_WIND HKO_PRES NEWDELHI_LAT NEWDELHI_LON NEWDELHI_GRADE NEWDELHI_WIND NEWDELHI_PRES NEWDELHI_CI NEWDELHI_DP NEWDELHI_POCI REUNION_LAT REUNION_LON REUNION_TYPE REUNION_WIND REUNION_PRES REUNION_TNUM REUNION_CI REUNION_RMW REUNION_R34_NE REUNION_R34_SE REUNION_R34_SW REUNION_R34_NW REUNION_R50_NE REUNION_R50_SE REUNION_R50_SW REUNION_R50_NW REUNION_R64_NE REUNION_R64_SE REUNION_R64_SW REUNION_R64_NW BOM_LAT BOM_LON BOM_TYPE BOM_WIND BOM_PRES BOM_TNUM BOM_CI BOM_RMW BOM_R34_NE BOM_R34_SE BOM_R34_SW BOM_R34_NW BOM_R50_NE BOM_R50_SE BOM_R50_SW BOM_R50_NW BOM_R64_NE BOM_R64_SE BOM_R64_SW BOM_R64_NW BOM_ROCI BOM_POCI BOM_EYE BOM_POS_METHOD BOM_PRES_METHOD NADI_LAT NADI_LON NADI_CAT NADI_WIND NADI_PRES WELLINGTON_LAT WELLINGTON_LON WELLINGTON_WIND WELLINGTON_PRES DS824_LAT DS824_LON DS824_STAGE DS824_WIND DS824_PRES TD9636_LAT TD9636_LON TD9636_STAGE TD9636_WIND TD9636_PRES TD9635_LAT TD9635_LON TD9635_WIND TD9635_PRES TD9635_ROCI NEUMANN_LAT NEUMANN_LON NEUMANN_CLASS NEUMANN_WIND NEUMANN_PRES MLC_LAT MLC_LON MLC_CLASS MLC_WIND MLC_PRES USA_GUST BOM_GUST BOM_GUST_PER REUNION_GUST REUNION_GUST_PER USA_SEAHGT USA_SEARAD_NE USA_SEARAD_SE USA_SEARAD_SW USA_SEARAD_NW STORM_SPEED STORM_DIR
1898197N25085 1898 20 NI BB NOT_NAMED 1898-07-16 00:00:00 TS 25.1000 85.2000 main 0 0 _________O____ -1 25.1000 85.2000 TC 30 2 292
1898197N25085 1898 20 NI BB NOT_NAMED 1898-07-16 03:00:00 TS 25.1333 85.1083 main 0 0 _________PO___ -1 25.1500 85.0625 TC 30 25.1000 85.2000 1 3 289
1898197N25085 1898 20 NI BB NOT_NAMED 1898-07-16 06:00:00 TS 25.1853 84.9340 main 0 0 _________OP___ -1 25.2000 84.9000 TC 30 25.1633 84.9849 1 4 287
1898197N25085 1898 20 NI BB NOT_NAMED 1898-07-16 09:00:00 TS 25.2377 84.7367 main 0 0 _________PP___ -1 25.2500 84.7000 TC 30 25.2212 84.7857 1 4 286
1898197N25085 1898 20 NI BB NOT_NAMED 1898-07-16 12:00:00 TS 25.2842 84.5593 main 0 0 _________OP___ -1 25.3000 84.5000 TC 30 25.2684 84.6186 1 3 288
1898197N25085 1898 20 NI BB NOT_NAMED 1898-07-16 15:00:00 TS 25.3287 84.4212 main 0 0 _________PO___ -1 25.3575 84.3425 TC 30 25.3000 84.5000 1 2 288
1898197N25085 1898 20 NI BB NOT_NAMED 1898-07-16 18:00:00 TS 25.3573 84.3157 main 0 0 _________OP___ -1 25.4000 84.2000 TC 30 25.3145 84.4315 1 2 281
1898197N25085 1898 20 NI BB NOT_NAMED 1898-07-16 21:00:00 TS 25.3585 84.2443 main 0 0 _________PP___ -1 25.3919 84.1323 TC 30 25.3251 84.3563 1 2 274
1898197N25085 1898 20 NI BB NOT_NAMED 1898-07-17 00:00:00 TS 25.3741 84.0515 main 0 0 _________OP___ -1 25.4000 83.9000 TC 30 25.3482 84.2030 1 6 278
1898197N25085 1898 20 NI BB NOT_NAMED 1898-07-17 03:00:00 TS 25.4390 83.5913 main 0 0 _________PO___ -1 25.4780 83.2825 TC 30 25.4000 83.9000 1 10 280
1898197N25085 1898 20 NI BB NOT_NAMED 1898-07-17 06:00:00 TS 25.5512 82.9194 main 0 0 _________OP___ -1 25.6000 82.5000 TC 30 25.5025 83.3387 1 13 281
1898197N25085 1898 20 NI BB NOT_NAMED 1898-07-17 09:00:00 TS 25.6902 82.2069 main 0 0 _________PP___ -1 25.7499 81.7851 TC 30 25.6306 82.6287 1 13 282
1898197N25085 1898 20 NI BB NOT_NAMED 1898-07-17 12:00:00 TS 25.8340 81.4771 main 0 0 _________OP___ -1 25.9000 81.1000 TC 30 25.7681 81.8542 1 13 282
1898197N25085 1898 20 NI BB NOT_NAMED 1898-07-17 15:00:00 TS 25.9536 80.7886 main 0 0 _________PO___ -1 26.0071 80.4773 TC 30 25.9000 81.1000 1 12 281
1898197N25085 1898 20 NI BB NOT_NAMED 1898-07-17 18:00:00 TS 26.0529 80.1922 main 0 0 _________OP___ -1 26.1000 79.9000 TC 30 26.0058 80.4845 1 11 281
1898197N25085 1898 20 NI BB NOT_NAMED 1898-07-17 21:00:00 TS 26.1527 79.6234 main 0 0 _________PP___ -1 26.1997 79.3424 TC 30 26.1058 79.9043 1 10 281
1898197N25085 1898 20 NI BB NOT_NAMED 1898-07-18 00:00:00 TS 26.2515 79.0735 main 0 0 _________OP___ -1 26.3000 78.8000 TC 30 26.2029 79.3470 1 10 281
1898197N25085 1898 20 NI BB NOT_NAMED 1898-07-18 03:00:00 TS 26.3499 78.5250 main 0 0 _________PO___ -1 26.3998 78.2499 TC 30 26.3000 78.8000 1 10 281
1898197N25085 1898 20 NI AS NOT_NAMED 1898-07-18 06:00:00 TS 26.4496 77.9713 main 0 0 _________OP___ -1 26.5000 77.7000 TC 30 26.3992 78.2425 1 10 281
1898197N25085 1898 20 NI AS NOT_NAMED 1898-07-18 09:00:00 TS 26.5494 77.4210 main 0 0 _________PP___ -1 26.5998 77.1499 TC 30 26.4990 77.6921 1 10 281
1898197N25085 1898 20 NI AS NOT_NAMED 1898-07-18 12:00:00 TS 26.6496 76.8728 main 0 0 _________OP___ -1 26.7000 76.6000 TC 30 26.5993 77.1456 1 10 282
1898197N25085 1898 20 NI AS NOT_NAMED 1898-07-18 15:00:00 TS 26.7499 76.3250 main 0 0 _________PO___ -1 26.7998 76.0499 TC 30 26.7000 76.6000 1 10 282
1898197N25085 1898 20 NI AS NOT_NAMED 1898-07-18 18:00:00 TS 26.8520 75.7648 main 0 0 _________OP___ -1 26.9000 75.5000 TC 30 26.8039 76.0297 1 10 281
1898197N25085 1898 20 NI AS NOT_NAMED 1898-07-18 21:00:00 TS 26.9537 75.1950 main 0 0 _________PP___ -1 27.0000 74.9275 TC 30 26.9074 75.4626 1 10 282
1898197N25085 1898 20 NI AS NOT_NAMED 1898-07-19 00:00:00 TS 27.0536 74.6571 main 0 0 _________OP___ -1 27.1000 74.4000 TC 30 27.0072 74.9141 1 9 283
1898197N25085 1898 20 NI AS NOT_NAMED 1898-07-19 03:00:00 TS 27.1536 74.1925 main 0 0 _________PO___ -1 27.2071 73.9849 TC 30 27.1000 74.4000 1 8 283
1898197N25085 1898 20 NI AS NOT_NAMED 1898-07-19 06:00:00 TS 27.2427 73.7633 main 0 0 _________OP___ -1 27.3000 73.6000 TC 30 27.1855 73.9266 1 8 281
1898197N25085 1898 20 NI AS NOT_NAMED 1898-07-19 09:00:00 TS 27.3108 73.3161 main 0 0 _________PP___ -1 27.3576 73.1424 TC 30 27.2641 73.4897 1 8 279
1898197N25085 1898 20 NI AS NOT_NAMED 1898-07-19 12:00:00 TS 27.3678 72.8915 main 0 0 _________OP___ -1 27.4000 72.7000 TC 30 27.3357 73.0830 1 7 279
1898197N25085 1898 20 NI AS NOT_NAMED 1898-07-19 15:00:00 TS 27.4249 72.5175 main 0 0 _________PO___ -1 27.4498 72.3349 TC 30 27.4000 72.7000 1 6 280
1898197N25085 1898 20 NI AS NOT_NAMED 1898-07-19 18:00:00 TS 27.4755 72.1913 main 0 0 _________OP___ -1 27.5000 72.0000 TC 30 27.4571 72.3348 1 6 280
1898197N25085 1898 20 NI AS NOT_NAMED 1898-07-19 21:00:00 TS 27.5251 71.8517 main 0 0 _________PP___ -1 27.5502 71.6551 TC 30 27.5083 71.9827 1 6 279
1898197N25085 1898 20 NI AS NOT_NAMED 1898-07-20 00:00:00 TS 27.5702 71.5262 main 0 0 _________OP___ -1 27.6000 71.3000 TC 30 27.5554 71.6393 1 5 279
1898197N25085 1898 20 NI AS NOT_NAMED 1898-07-20 03:00:00 NR 27.6000 71.3000 main 0 __________O___ -1 TC 27.6000 71.3000 1 4 278

About IBTrACS Database

This database is a web-friendly format of International Best Track Archive for Climate Stewardship (IBTrACS), a global best track data archive curated by NOAA dating back to 1842.

Updated: 2021-10-21